الصفحة الرئيسية
METAR-TAF:

METAR-TAF

مطار :

فلاغستاف, أريزونا, الولايات المتحدة

دائرة عرض: 35-08-25N, خط طول: 111-40-20W, ارتفاع: 2137 متر

مراقبة الطقس الحالي

تاريخ ووقت الإصدار 21 دقيقة قبل الساعة 01:57UTC
ريح 4 عقدة من الغرب
درجة الحرارة -3°درجة مئوية
الرطوبة 68%
ضغط 1014 hPa
الرؤية: 16.1 كم
غيوم قليلة على ارتفاع 2700 قدم
غيوم قليلة على ارتفاع 3500 قدم
غيوم متفرقة على ارتفاع 4400 قدم

METAR: KFLG 160157Z AUTO 28004KT 10SM FEW027 FEW035 SCT044 M03/M08 A2995 RMK AO2 SLP134 T10281083

زمن: 19:18 (02:18 UTC)

توقعات

تاريخ ووقت الإصدار 14 دقيقة قبل الساعة 02:04UTC
التوقعات صالحة من16 الساعة 02 UTC إلى 16 الساعة 24 UTC
ريح 6 عقدةمن اتجاهات متغيرة
الرؤية: 10 كم
غيوم قليلة على ارتفاع 2500 قدم
غيوم متفرقة على ارتفاع 4000 قدم
من 16 الساعة 1700 UTC
ريح 10 عقدة من الشمال الشرقي تتزايد حتى 15 عقدة
الرؤية: 10 كم
سماء صافية

TAF: KFLG 160204Z 1602/1624 VRB06KT P6SM FEW025 SCT040 FM161700 05010G15KT P6SM SKC

أرصاد الطقس والتوقعات من أكثر من 4000 مطار (تقارير الطقس للمطار METAR والتنبؤ بالطقس بالمطارTAF).

المحطات المتاحة هي النقط الصفراء والحمراء على الخريطة.

حرك المؤشر فوق النقطة لمعرفة اسم المحطة.

ثم انقر لمعرفة أرصاد وتوقعات الطقس.

لتغيير الخارطة: اضغط على الأزرار الخضراء مع رمز الصليب الأسود للتكبير. على الزر الأخضر مع شرطة للتصغير، أو على الأسهم الخضراء للخرائط المجاورة.


METAR-TAF: